createdAt,value
2023-11-18T00:00:13.960Z,98424.81
2023-11-18T00:02:44.072Z,98431.88
2023-11-18T00:05:12.039Z,98434.00
2023-11-18T00:07:39.876Z,98428.59
2023-11-18T00:10:09.527Z,98434.81
2023-11-18T00:12:42.449Z,98424.25
2023-11-18T00:15:12.690Z,98428.84
2023-11-18T00:17:41.472Z,98429.91
2023-11-18T00:20:10.554Z,98431.31
2023-11-18T00:22:38.179Z,98430.50
2023-11-18T00:25:06.701Z,98435.06
2023-11-18T00:27:37.035Z,98430.75
2023-11-18T00:30:09.153Z,98428.03
2023-11-18T00:32:37.289Z,98423.44
2023-11-18T00:35:05.805Z,98433.44
2023-11-18T00:37:33.596Z,98436.94
2023-11-18T00:40:01.408Z,98437.75
2023-11-18T00:42:31.078Z,98433.44
2023-11-18T00:44:58.657Z,98437.19
2023-11-18T00:47:27.577Z,98440.72
2023-11-18T00:49:55.490Z,98438.00
2023-11-18T00:52:23.040Z,98438.28
2023-11-18T00:54:50.568Z,98439.91
2023-11-18T00:57:18.147Z,98435.56
2023-11-18T00:59:45.669Z,98430.75
2023-11-18T01:02:14.555Z,98429.09
2023-11-18T01:04:43.411Z,98424.50
2023-11-18T01:07:11.315Z,98432.63
2023-11-18T01:09:40.117Z,98432.88
2023-11-18T01:12:10.813Z,98436.13
2023-11-18T01:14:40.061Z,98434.50
2023-11-18T01:17:08.296Z,98434.50
2023-11-18T01:19:35.940Z,98442.06
2023-11-18T01:22:07.069Z,98445.28
2023-11-18T01:24:34.871Z,98448.00
2023-11-18T01:27:02.440Z,98443.41
2023-11-18T01:29:29.988Z,98439.91
2023-11-18T01:31:58.086Z,98443.69
2023-11-18T01:34:26.676Z,98443.69
2023-11-18T01:36:54.222Z,98450.69
2023-11-18T01:39:23.211Z,98458.78
2023-11-18T01:41:50.705Z,98456.09
2023-11-18T01:44:20.893Z,98469.06
2023-11-18T01:46:48.985Z,98464.19
2023-11-18T01:49:17.237Z,98461.50
2023-11-18T01:51:46.848Z,98465.28
2023-11-18T01:54:19.860Z,98473.38
2023-11-18T01:56:50.127Z,98462.03
2023-11-18T01:59:20.973Z,98462.84
2023-11-18T02:01:54.224Z,98458.25
2023-11-18T02:04:22.759Z,98458.25
2023-11-18T02:06:51.446Z,98462.03
2023-11-18T02:09:19.702Z,98463.66
2023-11-18T02:11:55.422Z,98463.41
2023-11-18T02:14:27.459Z,98458.25
2023-11-18T02:17:00.250Z,98460.13
2023-11-18T02:19:31.142Z,98465.00
2023-11-18T02:22:01.379Z,98457.69
2023-11-18T02:24:31.636Z,98455.81
2023-11-18T02:27:01.772Z,98456.09
2023-11-18T02:29:36.758Z,98455.00
2023-11-18T02:32:15.935Z,98455.00
2023-11-18T02:34:58.549Z,98471.19
2023-11-18T02:37:28.360Z,98465.78
2023-11-18T02:40:15.617Z,98473.91
2023-11-18T02:42:46.086Z,98469.59
2023-11-18T02:45:18.081Z,98471.19
2023-11-18T02:47:46.517Z,98472.03
2023-11-18T02:50:14.913Z,98464.19
2023-11-18T02:52:43.265Z,98470.41
2023-11-18T02:55:12.104Z,98466.31
2023-11-18T02:57:40.046Z,98471.19
2023-11-18T03:00:20.366Z,98471.19
2023-11-18T03:02:49.234Z,98462.56
2023-11-18T03:05:17.126Z,98464.19
2023-11-18T03:07:45.817Z,98462.00
2023-11-18T03:10:21.908Z,98466.06
2023-11-18T03:12:49.646Z,98466.06
2023-11-18T03:15:18.645Z,98458.78
2023-11-18T03:17:47.312Z,98469.59
2023-11-18T03:20:17.808Z,98462.56
2023-11-18T03:22:48.779Z,98467.13
2023-11-18T03:25:17.447Z,98462.81
2023-11-18T03:27:47.753Z,98457.97
2023-11-18T03:30:15.697Z,98457.16
2023-11-18T03:32:44.372Z,98455.53
2023-11-18T03:35:12.154Z,98445.53
2023-11-18T03:37:42.479Z,98455.53
2023-11-18T03:40:12.595Z,98451.75
2023-11-18T03:42:41.028Z,98460.91
2023-11-18T03:45:10.675Z,98471.72
2023-11-18T03:47:39.152Z,98475.50
2023-11-18T03:50:14.288Z,98470.66
2023-11-18T03:52:42.025Z,98471.72
2023-11-18T03:55:10.335Z,98474.72
2023-11-18T03:57:37.801Z,98474.72
2023-11-18T04:00:07.359Z,98476.31
2023-11-18T04:02:43.938Z,98479.28
2023-11-18T04:05:12.793Z,98479.28
2023-11-18T04:07:43.728Z,98479.28
2023-11-18T04:10:11.744Z,98479.03
2023-11-18T04:12:39.453Z,98477.94
2023-11-18T04:15:08.680Z,98477.94
2023-11-18T04:17:36.370Z,98472.00
2023-11-18T04:20:06.430Z,98480.63
2023-11-18T04:22:35.305Z,98482.53
2023-11-18T04:25:02.906Z,98476.31
2023-11-18T04:27:30.868Z,98468.47
2023-11-18T04:29:58.332Z,98482.53
2023-11-18T04:32:25.869Z,98467.41
2023-11-18T04:34:53.365Z,98466.88
2023-11-18T04:37:20.922Z,98452.22
2023-11-18T04:39:49.725Z,98470.09
2023-11-18T04:42:17.210Z,98465.78
2023-11-18T04:44:45.088Z,98470.09
2023-11-18T04:47:12.727Z,98468.47
2023-11-18T04:49:40.345Z,98463.09
2023-11-18T04:52:07.883Z,98464.69
2023-11-18T04:54:35.340Z,98471.72
2023-11-18T04:57:04.785Z,98468.47
2023-11-18T04:59:32.244Z,98467.41
2023-11-18T05:01:59.768Z,98466.59
2023-11-18T05:04:27.242Z,98475.50
2023-11-18T05:06:54.849Z,98468.47
2023-11-18T05:09:22.329Z,98472.78
2023-11-18T05:11:49.801Z,98469.31
2023-11-18T05:14:18.570Z,98467.41
2023-11-18T05:16:46.536Z,98470.09
2023-11-18T05:19:15.480Z,98470.09
2023-11-18T05:21:43.470Z,98470.09
2023-11-18T05:24:11.117Z,98470.09
2023-11-18T05:26:38.647Z,98476.31
2023-11-18T05:29:07.035Z,98474.41
2023-11-18T05:31:36.659Z,98468.47
2023-11-18T05:34:04.397Z,98472.78
2023-11-18T05:36:38.203Z,98470.09
2023-11-18T05:39:10.568Z,98465.78
2023-11-18T05:41:40.869Z,98469.56
2023-11-18T05:44:18.319Z,98463.59
2023-11-18T05:46:48.017Z,98469.81
2023-11-18T05:49:15.820Z,98470.63
2023-11-18T05:51:43.348Z,98468.75
2023-11-18T05:54:11.393Z,98464.97
2023-11-18T05:56:39.040Z,98459.81
2023-11-18T05:59:06.819Z,98464.16
2023-11-18T06:01:34.509Z,98459.81
2023-11-18T06:04:03.312Z,98460.63
2023-11-18T06:06:33.123Z,98459.81
2023-11-18T06:09:05.954Z,98454.41
2023-11-18T06:11:33.649Z,98452.81
2023-11-18T06:14:01.725Z,98445.53
2023-11-18T06:16:30.051Z,98443.09
2023-11-18T06:18:59.910Z,98452.81
2023-11-18T06:21:32.353Z,98453.06
2023-11-18T06:24:01.785Z,98447.41
2023-11-18T06:26:29.680Z,98445.78
2023-11-18T06:28:57.913Z,98446.31
2023-11-18T06:31:25.800Z,98434.97
2023-11-18T06:33:53.930Z,98447.41
2023-11-18T06:36:23.589Z,98447.41
2023-11-18T06:38:54.894Z,98454.41
2023-11-18T06:41:36.107Z,98459.03
2023-11-18T06:44:18.515Z,98456.84
2023-11-18T06:46:46.157Z,98457.41
2023-11-18T06:49:16.621Z,98472.25
2023-11-18T06:51:44.575Z,98465.22
2023-11-18T06:54:14.833Z,98466.28
2023-11-18T06:56:45.278Z,98442.53
2023-11-18T06:59:15.879Z,98474.91
2023-11-18T07:01:45.936Z,98471.16
2023-11-18T07:04:15.792Z,98477.09
2023-11-18T07:06:44.342Z,98474.66
2023-11-18T07:09:14.911Z,98477.34
2023-11-18T07:11:42.851Z,98470.34
2023-11-18T07:14:10.617Z,98468.47
2023-11-18T07:16:39.293Z,98475.75
2023-11-18T07:19:06.931Z,98478.19
2023-11-18T07:21:34.728Z,98475.47
2023-11-18T07:24:03.596Z,98476.00
2023-11-18T07:26:32.458Z,98477.91
2023-11-18T07:28:59.988Z,98480.63
2023-11-18T07:31:27.491Z,98476.56
2023-11-18T07:33:55.731Z,98489.81
2023-11-18T07:36:23.158Z,98497.63
2023-11-18T07:38:53.608Z,98506.78
2023-11-18T07:41:30.734Z,98498.69
2023-11-18T07:44:04.943Z,98504.91
2023-11-18T07:46:32.879Z,98494.91
2023-11-18T07:49:02.467Z,98489.50
2023-11-18T07:51:30.161Z,98490.59
2023-11-18T07:53:57.823Z,98490.34
2023-11-18T07:56:25.217Z,98483.06
2023-11-18T07:58:53.805Z,98484.13
2023-11-18T08:01:23.419Z,98462.50
2023-11-18T08:03:54.106Z,98463.09
2023-11-18T08:06:21.817Z,98468.47
2023-11-18T08:08:49.657Z,98457.94
2023-11-18T08:11:18.223Z,98465.22
2023-11-18T08:13:45.908Z,98474.72
2023-11-18T08:16:15.838Z,98488.47
2023-11-18T08:18:46.101Z,98480.38
2023-11-18T08:21:13.669Z,98489.25
2023-11-18T08:23:41.184Z,98487.38
2023-11-18T08:26:08.781Z,98480.91
2023-11-18T08:28:36.503Z,98483.84
2023-11-18T08:31:04.367Z,98481.41
2023-11-18T08:33:32.111Z,98491.16
2023-11-18T08:36:02.710Z,98474.41
2023-11-18T08:38:30.701Z,98480.38
2023-11-18T08:40:58.242Z,98477.66
2023-11-18T08:43:26.525Z,98484.69
2023-11-18T08:45:54.069Z,98478.47
2023-11-18T08:48:24.041Z,98478.47
2023-11-18T08:50:52.722Z,98480.09
2023-11-18T08:53:27.306Z,98479.28
2023-11-18T08:55:55.650Z,98473.88
2023-11-18T08:58:28.172Z,98473.88
2023-11-18T09:00:56.876Z,98468.47
2023-11-18T09:03:26.101Z,98475.50
2023-11-18T09:05:58.390Z,98472.78
2023-11-18T09:08:28.462Z,98479.28
2023-11-18T09:10:56.831Z,98474.41
2023-11-18T09:13:35.844Z,98465.78
2023-11-18T09:16:09.585Z,98463.09
2023-11-18T09:18:42.943Z,98457.69
2023-11-18T09:21:24.175Z,98464.69
2023-11-18T09:23:52.810Z,98473.88
2023-11-18T09:26:22.536Z,98480.91
2023-11-18T09:28:51.440Z,98480.38
2023-11-18T09:31:19.172Z,98479.28
2023-11-18T09:33:53.028Z,98471.44
2023-11-18T09:36:20.625Z,98464.44
2023-11-18T09:38:49.374Z,98472.53
2023-11-18T09:41:19.650Z,98474.13
2023-11-18T09:43:48.767Z,98474.97
2023-11-18T09:46:19.451Z,98477.66
2023-11-18T09:48:48.599Z,98477.66
2023-11-18T09:51:22.044Z,98483.06
2023-11-18T09:53:51.685Z,98479.28
2023-11-18T09:56:35.349Z,98481.97
2023-11-18T09:59:20.659Z,98473.88
2023-11-18T10:01:54.622Z,98471.19
2023-11-18T10:04:22.654Z,98470.09
2023-11-18T10:06:54.649Z,98469.31
2023-11-18T10:09:29.524Z,98461.47
2023-11-18T10:12:06.327Z,98462.00
2023-11-18T10:14:34.900Z,98464.69
2023-11-18T10:17:07.778Z,98470.09
2023-11-18T10:19:50.925Z,98461.22
2023-11-18T10:22:24.061Z,98448.50
2023-11-18T10:24:55.451Z,98445.81
2023-11-18T10:27:28.698Z,98451.47
2023-11-18T10:29:56.954Z,98444.72
2023-11-18T10:32:28.575Z,98443.09
2023-11-18T10:34:57.250Z,98443.91
2023-11-18T10:37:24.821Z,98443.91
2023-11-18T10:39:55.032Z,98445.53
2023-11-18T10:42:23.192Z,98452.03
2023-11-18T10:44:58.893Z,98444.72
2023-11-18T10:47:27.205Z,98441.47
2023-11-18T10:49:57.198Z,98440.41
2023-11-18T10:52:27.180Z,98446.63
2023-11-18T10:54:57.721Z,98444.72
2023-11-18T10:57:29.822Z,98439.31
2023-11-18T11:00:01.840Z,98443.91
2023-11-18T11:02:36.179Z,98439.31
2023-11-18T11:05:04.083Z,98427.47
2023-11-18T11:07:33.747Z,98422.31
2023-11-18T11:10:05.219Z,98422.06
2023-11-18T11:12:39.538Z,98423.94
2023-11-18T11:15:15.162Z,98420.41
2023-11-18T11:17:48.208Z,98419.38
2023-11-18T11:20:28.193Z,98419.38
2023-11-18T11:23:09.719Z,98426.38
2023-11-18T11:25:45.339Z,98435.56
2023-11-18T11:28:20.935Z,98428.53
2023-11-18T11:30:56.614Z,98426.94
2023-11-18T11:33:30.304Z,98425.03
2023-11-18T11:36:00.569Z,98422.59
2023-11-18T11:38:30.069Z,98412.88
2023-11-18T11:41:01.916Z,98413.44
2023-11-18T11:43:31.091Z,98410.44
2023-11-18T11:46:00.222Z,98411.78
2023-11-18T11:48:29.145Z,98408.84
2023-11-18T11:51:21.570Z,98408.03
2023-11-18T11:53:57.849Z,98399.94
2023-11-18T11:56:39.521Z,98394.81
2023-11-18T11:59:12.321Z,98391.03
2023-11-18T12:01:47.909Z,98384.78
2023-11-18T12:04:22.508Z,98386.44
2023-11-18T12:06:56.866Z,98382.66
2023-11-18T12:09:34.069Z,98374.00
2023-11-18T12:12:03.922Z,98374.00
2023-11-18T12:14:39.182Z,98370.25
2023-11-18T12:17:14.792Z,98364.03
2023-11-18T12:19:47.739Z,98357.78
2023-11-18T12:22:25.139Z,98351.59
2023-11-18T12:25:34.671Z,98357.78
2023-11-18T12:28:09.005Z,98345.38
2023-11-18T12:30:42.641Z,98337.84
2023-11-18T12:33:12.495Z,98328.09
2023-11-18T12:36:09.129Z,98321.63
2023-11-18T12:39:04.376Z,98310.84
2023-11-18T12:41:39.338Z,98300.03
2023-11-18T12:44:19.926Z,98303.78
2023-11-18T12:46:51.126Z,98298.41
2023-11-18T12:49:29.075Z,98280.06
2023-11-18T12:51:57.342Z,98287.59
2023-11-18T12:54:28.328Z,98280.06
2023-11-18T12:56:56.079Z,98274.09
2023-11-18T12:59:24.741Z,98275.75
2023-11-18T13:01:55.051Z,98272.22
2023-11-18T13:04:28.733Z,98274.09
2023-11-18T13:06:56.650Z,98270.59
2023-11-18T13:09:27.197Z,98270.88
2023-11-18T13:11:57.396Z,98268.69
2023-11-18T13:14:26.697Z,98266.00
2023-11-18T13:16:54.807Z,98259.53
2023-11-18T13:19:28.753Z,98258.97
2023-11-18T13:22:00.126Z,98269.53
2023-11-18T13:24:28.062Z,98281.13
2023-11-18T13:26:56.717Z,98274.66
2023-11-18T13:29:25.477Z,98270.34
2023-11-18T13:31:53.282Z,98271.13
2023-11-18T13:34:21.248Z,98254.94
2023-11-18T13:36:51.084Z,98260.88
2023-11-18T13:39:19.211Z,98259.53
2023-11-18T13:41:50.730Z,98262.78
2023-11-18T13:44:35.217Z,98260.66
2023-11-18T13:47:06.474Z,98255.00
2023-11-18T13:49:38.138Z,98253.91
2023-11-18T13:52:12.463Z,98243.91
2023-11-18T13:54:41.282Z,98236.91
2023-11-18T13:57:08.862Z,98228.25
2023-11-18T13:59:36.469Z,98228.25
2023-11-18T14:02:05.725Z,98226.38
2023-11-18T14:04:35.094Z,98216.34
2023-11-18T14:07:06.146Z,98213.13
2023-11-18T14:09:37.255Z,98214.19
2023-11-18T14:12:07.367Z,98220.41
2023-11-18T14:14:35.016Z,98216.88
2023-11-18T14:17:02.593Z,98222.59
2023-11-18T14:19:32.819Z,98224.44
2023-11-18T14:22:00.950Z,98219.03
2023-11-18T14:24:33.033Z,98226.31
2023-11-18T14:27:01.928Z,98220.13
2023-11-18T14:29:29.938Z,98219.31
2023-11-18T14:31:58.137Z,98213.06
2023-11-18T14:34:26.542Z,98221.19
2023-11-18T14:36:57.738Z,98211.47
2023-11-18T14:39:26.808Z,98216.88
2023-11-18T14:41:54.847Z,98208.53
2023-11-18T14:44:23.764Z,98196.91
2023-11-18T14:46:51.435Z,98187.75
2023-11-18T14:49:19.180Z,98172.34
2023-11-18T14:51:46.689Z,98191.78
2023-11-18T14:54:17.199Z,98201.25
2023-11-18T14:56:47.776Z,98205.31
2023-11-18T14:59:15.308Z,98205.84
2023-11-18T15:01:45.330Z,98196.63
2023-11-18T15:04:13.288Z,98187.22
2023-11-18T15:06:42.056Z,98195.28
2023-11-18T15:09:11.971Z,98176.94
2023-11-18T15:11:39.604Z,98180.44
2023-11-18T15:14:08.839Z,98184.78
2023-11-18T15:16:36.436Z,98189.34
2023-11-18T15:19:05.376Z,98186.41
2023-11-18T15:21:33.452Z,98171.78
2023-11-18T15:24:02.728Z,98168.28
2023-11-18T15:26:32.493Z,98170.44
2023-11-18T15:29:02.829Z,98162.34
2023-11-18T15:31:30.799Z,98160.72
2023-11-18T15:33:58.333Z,98143.97
2023-11-18T15:36:27.260Z,98139.09
2023-11-18T15:38:54.781Z,98131.03
2023-11-18T15:41:23.306Z,98135.31
2023-11-18T15:43:50.870Z,98122.09
2023-11-18T15:46:18.798Z,98116.97
2023-11-18T15:48:48.194Z,98118.59
2023-11-18T15:51:17.181Z,98126.69
2023-11-18T15:53:46.092Z,98128.28
2023-11-18T15:56:13.603Z,98136.69
2023-11-18T15:58:41.114Z,98139.63
2023-11-18T16:01:10.965Z,98145.59
2023-11-18T16:03:38.657Z,98153.13
2023-11-18T16:06:07.032Z,98145.56
2023-11-18T16:08:34.595Z,98158.25
2023-11-18T16:11:03.660Z,98155.28
2023-11-18T16:13:31.232Z,98156.66
2023-11-18T16:15:58.655Z,98155.31
2023-11-18T16:18:26.885Z,98156.13
2023-11-18T16:20:54.613Z,98148.84
2023-11-18T16:23:23.593Z,98137.75
2023-11-18T16:25:51.006Z,98133.44
2023-11-18T16:28:19.771Z,98127.78
2023-11-18T16:30:47.223Z,98128.84
2023-11-18T16:33:14.781Z,98124.81
2023-11-18T16:35:42.248Z,98114.28
2023-11-18T16:38:09.810Z,98111.59
2023-11-18T16:40:37.398Z,98114.81
2023-11-18T16:43:06.023Z,98104.00
2023-11-18T16:45:34.929Z,98108.91
2023-11-18T16:48:03.051Z,98108.63
2023-11-18T16:50:30.949Z,98091.09
2023-11-18T16:53:00.726Z,98092.13
2023-11-18T16:55:34.558Z,98099.44
2023-11-18T16:58:02.786Z,98089.97
2023-11-18T17:00:32.436Z,98080.00
2023-11-18T17:03:01.397Z,98068.38
2023-11-18T17:05:30.751Z,98073.78
2023-11-18T17:08:00.076Z,98083.78
2023-11-18T17:10:27.884Z,98074.06
2023-11-18T17:12:55.592Z,98063.50
2023-11-18T17:15:23.161Z,98057.03
2023-11-18T17:18:01.648Z,98060.56
2023-11-18T17:20:31.480Z,98058.13
2023-11-18T17:22:59.258Z,98060.81
2023-11-18T17:25:26.838Z,98059.72
2023-11-18T17:27:54.717Z,98058.13
2023-11-18T17:30:23.218Z,98054.88
2023-11-18T17:32:53.011Z,98060.00
2023-11-18T17:35:21.630Z,98047.31
2023-11-18T17:37:53.259Z,98041.91
2023-11-18T17:40:22.930Z,98039.22
2023-11-18T17:42:54.703Z,98047.31
2023-11-18T17:45:24.920Z,98040.53
2023-11-18T17:47:52.681Z,98049.19
2023-11-18T17:50:20.199Z,98047.31
2023-11-18T17:52:48.452Z,98033.00
2023-11-18T17:55:17.453Z,98028.41
2023-11-18T17:57:45.422Z,98023.81
2023-11-18T18:00:14.788Z,97999.78
2023-11-18T18:02:44.968Z,97991.66
2023-11-18T18:05:15.258Z,97987.91
2023-11-18T18:07:43.085Z,97981.97
2023-11-18T18:10:13.034Z,97996.00
2023-11-18T18:12:45.179Z,97986.28
2023-11-18T18:15:14.418Z,97979.81
2023-11-18T18:17:42.099Z,97965.50
2023-11-18T18:20:10.856Z,97963.63
2023-11-18T18:22:39.611Z,97962.78
2023-11-18T18:25:09.714Z,97965.50
2023-11-18T18:27:37.176Z,97961.97
2023-11-18T18:30:07.475Z,97980.88
2023-11-18T18:32:35.407Z,97995.19
2023-11-18T18:35:03.246Z,97986.28
2023-11-18T18:37:31.669Z,97991.66
2023-11-18T18:39:59.696Z,97997.06
2023-11-18T18:42:30.597Z,97991.66
2023-11-18T18:44:58.181Z,97985.47
2023-11-18T18:47:28.780Z,97984.66
2023-11-18T18:49:58.601Z,97969.03
2023-11-18T18:52:26.166Z,97972.38
2023-11-18T18:54:56.344Z,97966.59
2023-11-18T18:57:25.262Z,97959.69
2023-11-18T18:59:53.104Z,97951.66
2023-11-18T19:02:20.730Z,97945.75
2023-11-18T19:04:50.248Z,97937.69
2023-11-18T19:07:19.669Z,97936.34
2023-11-18T19:09:47.400Z,97926.63
2023-11-18T19:12:14.949Z,97923.38
2023-11-18T19:14:42.504Z,97914.47
2023-11-18T19:17:10.536Z,97913.41
2023-11-18T19:19:38.132Z,97906.38
2023-11-18T19:22:07.403Z,97900.41
2023-11-18T19:24:35.225Z,97892.31
2023-11-18T19:27:02.775Z,97883.16
2023-11-18T19:29:30.397Z,97871.81
2023-11-18T19:31:57.964Z,97883.16
2023-11-18T19:34:25.519Z,97876.13
2023-11-18T19:36:52.972Z,97878.81
2023-11-18T19:39:21.840Z,97869.13
2023-11-18T19:41:49.381Z,97849.13
2023-11-18T19:44:17.324Z,97838.31
2023-11-18T19:46:50.816Z,97827.53
2023-11-18T19:49:18.542Z,97825.91
2023-11-18T19:51:46.688Z,97819.69
2023-11-18T19:54:14.193Z,97806.19
2023-11-18T19:56:43.818Z,97803.22
2023-11-18T19:59:11.421Z,97792.41
2023-11-18T20:01:38.925Z,97774.63
2023-11-18T20:04:06.545Z,97762.19
2023-11-18T20:06:35.350Z,97764.88
2023-11-18T20:09:03.788Z,97759.47
2023-11-18T20:11:32.156Z,97766.53
2023-11-18T20:14:01.141Z,97780.03
2023-11-18T20:16:29.697Z,97783.78
2023-11-18T20:18:57.208Z,97783.78
2023-11-18T20:21:24.876Z,97783.78
2023-11-18T20:23:52.667Z,97768.69
2023-11-18T20:26:20.217Z,97756.78
2023-11-18T20:28:50.269Z,97740.59
2023-11-18T20:31:19.009Z,97729.78
2023-11-18T20:33:46.421Z,97710.09
2023-11-18T20:36:13.894Z,97705.50
2023-11-18T20:38:41.416Z,97706.59
2023-11-18T20:41:08.913Z,97714.69
2023-11-18T20:43:36.429Z,97732.47
2023-11-18T20:46:04.387Z,97743.00
2023-11-18T20:48:33.379Z,97753.03
2023-11-18T20:51:02.002Z,97761.91
2023-11-18T20:53:30.168Z,97788.13
2023-11-18T20:55:57.645Z,97770.28
2023-11-18T20:58:26.851Z,97763.28
2023-11-18T21:00:54.615Z,97755.19
2023-11-18T21:03:22.842Z,97747.91
2023-11-18T21:05:52.061Z,97752.47
2023-11-18T21:08:19.670Z,97752.19
2023-11-18T21:10:50.535Z,97737.88
2023-11-18T21:13:17.886Z,97737.88
2023-11-18T21:15:45.348Z,97743.28
2023-11-18T21:18:13.507Z,97740.88
2023-11-18T21:20:41.157Z,97742.50
2023-11-18T21:23:09.837Z,97734.13
2023-11-18T21:25:37.468Z,97725.19
2023-11-18T21:28:05.690Z,97714.69
2023-11-18T21:30:33.463Z,97711.97
2023-11-18T21:33:05.348Z,97710.09
2023-11-18T21:35:33.192Z,97703.88
2023-11-18T21:38:00.664Z,97706.59
2023-11-18T21:40:30.234Z,97710.38
2023-11-18T21:42:58.839Z,97704.44
2023-11-18T21:45:28.777Z,97711.16
2023-11-18T21:47:56.693Z,97700.94
2023-11-18T21:50:24.440Z,97695.28
2023-11-18T21:52:52.016Z,97696.88
2023-11-18T21:55:19.530Z,97693.38
2023-11-18T21:57:48.310Z,97696.88
2023-11-18T22:00:18.079Z,97694.97
2023-11-18T22:02:47.031Z,97689.88
2023-11-18T22:05:15.754Z,97683.13
2023-11-18T22:07:43.405Z,97665.84
2023-11-18T22:10:12.876Z,97669.34
2023-11-18T22:12:43.354Z,97651.25
2023-11-18T22:15:17.929Z,97656.66
2023-11-18T22:17:46.152Z,97657.47
2023-11-18T22:20:14.659Z,97669.06
2023-11-18T22:22:42.557Z,97675.28
2023-11-18T22:25:10.672Z,97674.75
2023-11-18T22:27:41.466Z,97667.47
2023-11-18T22:30:13.416Z,97665.03
2023-11-18T22:32:43.292Z,97660.75
2023-11-18T22:35:10.871Z,97654.25
2023-11-18T22:37:38.362Z,97666.13
2023-11-18T22:40:11.724Z,97671.53
2023-11-18T22:42:40.768Z,97665.03
2023-11-18T22:45:27.599Z,97658.03
2023-11-18T22:47:57.736Z,97656.41
2023-11-18T22:50:25.493Z,97644.53
2023-11-18T22:52:54.644Z,97645.59
2023-11-18T22:55:23.168Z,97640.22
2023-11-18T22:57:50.800Z,97637.22
2023-11-18T23:00:53.909Z,97640.22
2023-11-18T23:03:23.242Z,97651.00
2023-11-18T23:05:54.025Z,97643.72
2023-11-18T23:08:23.250Z,97638.59
2023-11-18T23:10:52.010Z,97627.81
2023-11-18T23:13:20.805Z,97644.00
2023-11-18T23:15:48.691Z,97645.59
2023-11-18T23:18:16.825Z,97635.91
2023-11-18T23:20:45.775Z,97637.00
2023-11-18T23:23:13.337Z,97635.13
2023-11-18T23:25:40.794Z,97638.59
2023-11-18T23:28:09.525Z,97631.59
2023-11-18T23:30:37.273Z,97618.09
2023-11-18T23:33:05.483Z,97628.09
2023-11-18T23:35:34.357Z,97624.59
2023-11-18T23:38:06.387Z,97613.81
2023-11-18T23:40:34.462Z,97608.41
2023-11-18T23:43:02.246Z,97600.31
2023-11-18T23:45:30.949Z,97602.19
2023-11-18T23:47:58.846Z,97600.31
2023-11-18T23:50:28.397Z,97586.00
2023-11-18T23:52:55.854Z,97594.09
2023-11-18T23:55:25.576Z,97595.97
2023-11-18T23:57:53.345Z,97586.81
